Terminal Aerodrome Forecast
Issued by NWS St Louis, MO

Home | Current Version | Previous Version | Text Only | Print | Product List | Glossary On
Versions: 1 2 3 4 5 6 7 8 9 10 11 12 13 14 15 16 17 18 19 20 21 22 23 24 25 26 27 28 29 30 31 32
000
FTUS43 KLSX 291300 AAA
TAFSTL
TAF AMD
KSTL 291309Z 2913/3018 29008KT 6SM BR BKN010
      TEMPO 2913/2915 3SM BR BKN006
     FM291600 31012KT P6SM BKN020
     FM291900 31009KT P6SM SCT040
     FM300600 26004KT P6SM SCT070=

USA.gov is the U.S. government's official web portal to all federal, state and local government web resources and services.